Time;durP1;ratioP1;P1;durP2;ratioP2;P2;SDS_P1;SDS_P2;PMS_P1;PMS_P2;Temp;Humidity;BMP_temperature;BMP_pressure;BME280_temperature;BME280_humidity;BME280_pressure;Samples;Min_cycle;Max_cycle;Signal;HPM_P1;HPM_P2
2023/09/10 00:01:24;;;;;;;7.13;6.53;;;;;;;;;;5035391;28;20506;-69
2023/09/10 00:03:50;;;;;;;8.87;7.80;;;;;;;;;;5035329;28;20411;-69
2023/09/10 00:06:16;;;;;;;8.97;7.73;;;;;;;;;;5035622;28;20813;-70
2023/09/10 00:08:42;;;;;;;8.83;6.50;;;;;;;;;;5035292;28;20434;-70
2023/09/10 00:11:08;;;;;;;7.43;6.67;;;;;;;;;;5035267;28;20438;-69
2023/09/10 00:13:34;;;;;;;7.83;6.70;;;;;;;;;;5035478;28;20483;-69
2023/09/10 00:16:00;;;;;;;8.23;5.83;;;;;;;;;;5035098;28;20477;-69
2023/09/10 00:18:26;;;;;;;8.17;7.37;;;;;;;;;;5034960;28;20477;-69
2023/09/10 00:20:52;;;;;;;7.80;7.10;;;;;;;;;;5035108;28;20522;-69
2023/09/10 00:23:18;;;;;;;7.77;7.07;;;;;;;;;;5035055;28;20953;-69
2023/09/10 00:25:44;;;;;;;7.90;7.30;;;;;;;;;;5034988;28;20481;-71
2023/09/10 00:28:10;;;;;;;7.83;7.20;;;;;;;;;;5033700;28;20907;-69
2023/09/10 00:30:36;;;;;;;6.97;6.57;;;;;;;;;;5034789;28;20418;-69
2023/09/10 00:33:02;;;;;;;6.73;5.97;;;;;;;;;;5035101;28;20467;-70
2023/09/10 00:35:29;;;;;;;6.90;6.30;;;;;;;;;;5034765;28;20422;-69
2023/09/10 00:37:54;;;;;;;17.03;6.93;;;;;;;;;;5034699;28;20431;-70
2023/09/10 00:40:20;;;;;;;8.23;7.53;;;;;;;;;;5034917;28;20416;-70
2023/09/10 00:42:46;;;;;;;7.27;6.60;;;;;;;;;;5034745;28;20483;-69
2023/09/10 00:45:13;;;;;;;8.80;7.87;;;;;;;;;;5034753;28;20412;-69
2023/09/10 00:47:43;;;;;;;6.57;6.27;;;;;;;;;;5034920;28;20422;-70
2023/09/10 00:50:10;;;;;;;6.87;6.53;;;;;;;;;;5034792;28;20396;-71
2023/09/10 00:52:37;;;;;;;8.80;6.87;;;;;;;;;;5034723;28;20459;-71
2023/09/10 00:55:04;;;;;;;7.70;7.10;;;;;;;;;;5034358;28;20872;-70
2023/09/10 00:57:30;;;;;;;12.70;7.00;;;;;;;;;;5034408;28;20415;-69
2023/09/10 00:59:56;;;;;;;8.90;8.00;;;;;;;;;;5034535;28;20430;-70
2023/09/10 01:02:23;;;;;;;7.57;6.87;;;;;;;;;;5034275;28;20911;-70
2023/09/10 01:04:49;;;;;;;6.70;6.40;;;;;;;;;;5034458;28;20423;-70
2023/09/10 01:07:15;;;;;;;7.57;7.03;;;;;;;;;;5034147;28;20420;-69
2023/09/10 01:09:40;;;;;;;8.40;7.80;;;;;;;;;;5034265;28;20430;-69
2023/09/10 01:12:21;;;;;;;7.50;6.90;;;;;;;;;;5034093;28;20888;-71
2023/09/10 01:15:01;;;;;;;7.20;6.87;;;;;;;;;;5034053;28;20924;-70
2023/09/10 01:17:35;;;;;;;7.67;6.90;;;;;;;;;;5034081;28;20410;-70
2023/09/10 01:20:20;;;;;;;6.73;6.23;;;;;;;;;;5034436;28;20415;-70
2023/09/10 01:23:11;;;;;;;8.20;7.50;;;;;;;;;;5033913;28;20449;-69
2023/09/10 01:25:38;;;;;;;7.47;6.87;;;;;;;;;;5033558;28;20431;-69
2023/09/10 01:28:04;;;;;;;6.50;6.10;;;;;;;;;;5033773;28;20455;-70
2023/09/10 01:30:30;;;;;;;10.30;6.60;;;;;;;;;;5033444;28;20490;-70
2023/09/10 01:32:59;;;;;;;6.13;5.73;;;;;;;;;;5034016;28;20482;-70
2023/09/10 01:35:31;;;;;;;6.57;6.13;;;;;;;;;;5033687;28;20423;-70
2023/09/10 01:38:16;;;;;;;6.10;5.57;;;;;;;;;;5033575;28;20419;-69
2023/09/10 01:40:46;;;;;;;10.33;6.50;;;;;;;;;;5033808;28;20792;-72
2023/09/10 01:43:13;;;;;;;10.77;6.10;;;;;;;;;;5034044;28;20915;-71
2023/09/10 01:45:39;;;;;;;7.97;6.03;;;;;;;;;;5033537;28;20780;-69
2023/09/10 01:48:06;;;;;;;9.57;6.00;;;;;;;;;;5033480;28;20507;-69
2023/09/10 01:50:32;;;;;;;6.07;5.40;;;;;;;;;;5033432;28;20913;-71
2023/09/10 01:52:58;;;;;;;10.13;6.23;;;;;;;;;;5033599;28;20473;-70
2023/09/10 01:55:25;;;;;;;6.60;6.20;;;;;;;;;;5032684;28;20869;-70
2023/09/10 01:57:52;;;;;;;5.97;5.77;;;;;;;;;;5032804;28;20416;-69
2023/09/10 02:00:18;;;;;;;9.40;8.50;;;;;;;;;;5032744;28;20804;-70
2023/09/10 02:02:44;;;;;;;9.63;8.10;;;;;;;;;;5032864;28;20965;-70
2023/09/10 02:05:10;;;;;;;10.00;7.53;;;;;;;;;;5032758;28;20911;-70
2023/09/10 02:07:36;;;;;;;7.67;6.97;;;;;;;;;;5032519;28;20806;-71
2023/09/10 02:10:03;;;;;;;7.20;6.80;;;;;;;;;;5032268;28;20423;-70
2023/09/10 02:12:29;;;;;;;10.60;9.30;;;;;;;;;;5032523;28;20426;-68
2023/09/10 02:14:55;;;;;;;15.37;8.20;;;;;;;;;;5032117;28;20431;-69
2023/09/10 02:17:21;;;;;;;7.87;7.37;;;;;;;;;;5032583;28;20415;-70
2023/09/10 02:19:47;;;;;;;6.93;6.53;;;;;;;;;;5032177;28;20423;-69
2023/09/10 02:25:17;;;;;;;7.43;5.50;;;;;;;;;;5032254;28;20503;-70
2023/09/10 02:27:43;;;;;;;9.73;6.50;;;;;;;;;;5032065;28;20415;-71
2023/09/10 02:30:09;;;;;;;7.17;6.37;;;;;;;;;;5031957;28;20419;-71
2023/09/10 02:32:36;;;;;;;8.03;7.30;;;;;;;;;;5031930;28;20458;-70
2023/09/10 02:35:03;;;;;;;5.90;5.63;;;;;;;;;;5032256;28;20577;-70
2023/09/10 02:37:29;;;;;;;6.30;5.90;;;;;;;;;;5032173;28;20407;-70
2023/09/10 02:39:55;;;;;;;6.53;6.03;;;;;;;;;;5032157;28;20502;-70
2023/09/10 02:42:21;;;;;;;5.83;5.43;;;;;;;;;;5030948;28;20438;-70
2023/09/10 02:44:46;;;;;;;9.20;6.60;;;;;;;;;;5031859;28;20446;-70
2023/09/10 02:47:13;;;;;;;6.77;6.17;;;;;;;;;;5031828;28;20411;-71
2023/09/10 02:49:39;;;;;;;6.87;6.27;;;;;;;;;;5031992;28;20508;-71
2023/09/10 02:52:05;;;;;;;7.03;6.53;;;;;;;;;;5031998;28;20439;-70
2023/09/10 02:54:35;;;;;;;8.07;7.27;;;;;;;;;;4995163;28;1055677;-71
2023/09/10 02:57:01;;;;;;;7.67;7.03;;;;;;;;;;5032884;28;20169;-70
2023/09/10 02:59:27;;;;;;;6.57;6.20;;;;;;;;;;5033202;28;20934;-72
2023/09/10 03:01:53;;;;;;;6.10;5.80;;;;;;;;;;5032686;28;20423;-70
2023/09/10 03:04:20;;;;;;;6.80;5.90;;;;;;;;;;5032781;28;20407;-69
2023/09/10 03:06:46;;;;;;;7.37;6.50;;;;;;;;;;5032685;28;20454;-70
2023/09/10 03:09:13;;;;;;;8.67;6.70;;;;;;;;;;5032649;28;20465;-69
2023/09/10 03:11:39;;;;;;;11.30;6.60;;;;;;;;;;5032439;28;20416;-71
2023/09/10 03:14:05;;;;;;;7.73;7.00;;;;;;;;;;5032570;28;20479;-70
2023/09/10 03:16:32;;;;;;;7.70;7.10;;;;;;;;;;5032459;28;20926;-70
2023/09/10 03:18:58;;;;;;;7.63;6.87;;;;;;;;;;5032590;28;20459;-70
2023/09/10 03:21:25;;;;;;;6.90;6.50;;;;;;;;;;5032513;28;20420;-71
2023/09/10 03:23:51;;;;;;;7.13;6.63;;;;;;;;;;5030977;28;20435;-71
2023/09/10 03:26:17;;;;;;;12.30;6.73;;;;;;;;;;5032452;28;20431;-71
2023/09/10 03:28:43;;;;;;;7.33;6.63;;;;;;;;;;5032396;28;20925;-71
2023/09/10 03:31:09;;;;;;;6.93;6.53;;;;;;;;;;5032637;28;20820;-70
2023/09/10 03:33:35;;;;;;;7.60;7.00;;;;;;;;;;5030880;28;20521;-69
2023/09/10 03:36:01;;;;;;;7.53;6.60;;;;;;;;;;5032178;28;20415;-70
2023/09/10 03:38:27;;;;;;;7.73;7.10;;;;;;;;;;5032512;28;20506;-69
2023/09/10 03:40:53;;;;;;;6.90;6.07;;;;;;;;;;5032363;28;20414;-71
2023/09/10 03:43:19;;;;;;;16.90;7.47;;;;;;;;;;5032465;28;20454;-71
2023/09/10 03:45:45;;;;;;;7.03;6.37;;;;;;;;;;5032020;28;20465;-70
2023/09/10 03:48:12;;;;;;;6.90;6.40;;;;;;;;;;5032160;28;20511;-71
2023/09/10 03:50:38;;;;;;;7.53;6.87;;;;;;;;;;5032307;28;20177;-70
2023/09/10 03:53:04;;;;;;;9.30;7.27;;;;;;;;;;5032778;28;20466;-72
2023/09/10 03:55:30;;;;;;;7.17;6.30;;;;;;;;;;5035436;28;20524;-69
2023/09/10 03:57:56;;;;;;;6.70;6.20;;;;;;;;;;5035641;28;20792;-69
2023/09/10 04:00:22;;;;;;;7.57;6.90;;;;;;;;;;5035684;28;20419;-71
2023/09/10 04:02:48;;;;;;;6.70;6.27;;;;;;;;;;5035415;28;20428;-71
2023/09/10 04:05:14;;;;;;;6.20;5.80;;;;;;;;;;5035577;28;20772;-71
2023/09/10 04:07:41;;;;;;;6.33;5.93;;;;;;;;;;5035318;28;20411;-71
2023/09/10 04:10:08;;;;;;;6.80;6.33;;;;;;;;;;5035568;28;20477;-70
2023/09/10 04:12:34;;;;;;;7.70;7.07;;;;;;;;;;5035250;28;20419;-69
2023/09/10 04:15:00;;;;;;;14.03;6.37;;;;;;;;;;5035176;28;20782;-70
2023/09/10 04:17:29;;;;;;;7.67;6.10;;;;;;;;;;5035382;28;20415;-70
2023/09/10 04:19:56;;;;;;;6.73;6.23;;;;;;;;;;5035028;28;20463;-69
2023/09/10 04:22:22;;;;;;;6.77;6.13;;;;;;;;;;5035177;28;20597;-69
2023/09/10 04:24:47;;;;;;;6.40;5.87;;;;;;;;;;5035266;28;20878;-69
2023/09/10 04:27:13;;;;;;;8.10;6.43;;;;;;;;;;5034941;28;20434;-69
2023/09/10 04:29:39;;;;;;;6.30;6.00;;;;;;;;;;5035426;28;20481;-69
2023/09/10 04:32:05;;;;;;;8.73;5.70;;;;;;;;;;5035170;28;20427;-69
2023/09/10 04:34:31;;;;;;;6.37;6.07;;;;;;;;;;5034734;28;20975;-69
2023/09/10 04:36:57;;;;;;;16.50;6.40;;;;;;;;;;5034898;28;20415;-69
2023/09/10 04:39:23;;;;;;;7.63;6.97;;;;;;;;;;5035165;28;20856;-69
2023/09/10 04:41:49;;;;;;;8.17;6.60;;;;;;;;;;5034982;28;20439;-69
2023/09/10 04:44:15;;;;;;;6.83;6.50;;;;;;;;;;5034670;28;20424;-69
2023/09/10 04:46:41;;;;;;;14.33;6.07;;;;;;;;;;5034650;28;20412;-69
2023/09/10 04:49:07;;;;;;;9.70;6.80;;;;;;;;;;5034775;28;20426;-69
2023/09/10 04:51:33;;;;;;;7.90;7.40;;;;;;;;;;5034703;28;20518;-68
2023/09/10 04:53:59;;;;;;;14.73;7.20;;;;;;;;;;5034224;28;20521;-70
2023/09/10 04:56:25;;;;;;;7.70;6.90;;;;;;;;;;5034802;28;20395;-70
2023/09/10 04:58:51;;;;;;;16.17;7.17;;;;;;;;;;5034640;28;20472;-69
2023/09/10 05:01:17;;;;;;;7.57;6.70;;;;;;;;;;5034783;28;20414;-70
2023/09/10 05:03:43;;;;;;;8.00;7.43;;;;;;;;;;5034415;28;20907;-70
2023/09/10 05:06:10;;;;;;;13.50;7.60;;;;;;;;;;5033611;28;20517;-70
2023/09/10 05:08:36;;;;;;;8.20;6.83;;;;;;;;;;5034363;28;20907;-70
2023/09/10 05:11:02;;;;;;;7.17;6.40;;;;;;;;;;5034415;28;20423;-70
2023/09/10 05:13:28;;;;;;;8.20;7.23;;;;;;;;;;5034030;28;20502;-71
2023/09/10 05:15:55;;;;;;;7.03;6.23;;;;;;;;;;5034201;28;20446;-70
2023/09/10 05:18:24;;;;;;;7.53;5.70;;;;;;;;;;5034242;28;20474;-72
2023/09/10 05:20:50;;;;;;;6.60;6.00;;;;;;;;;;5033979;28;20942;-69
2023/09/10 05:23:16;;;;;;;5.40;5.20;;;;;;;;;;5034109;28;20840;-71
2023/09/10 05:25:42;;;;;;;7.60;7.10;;;;;;;;;;5034128;28;20894;-72
2023/09/10 05:28:08;;;;;;;6.07;5.57;;;;;;;;;;5033902;28;20423;-70
2023/09/10 05:30:37;;;;;;;6.03;5.73;;;;;;;;;;5033747;28;20419;-71
2023/09/10 05:33:03;;;;;;;5.30;5.10;;;;;;;;;;5034176;28;20458;-69
2023/09/10 05:35:29;;;;;;;8.20;5.57;;;;;;;;;;5034223;28;20811;-69
2023/09/10 05:37:56;;;;;;;6.10;5.70;;;;;;;;;;5033650;28;20411;-69
2023/09/10 05:40:22;;;;;;;7.73;6.83;;;;;;;;;;5033491;28;20419;-70
2023/09/10 05:42:48;;;;;;;6.87;6.30;;;;;;;;;;5033744;28;20415;-69
2023/09/10 05:45:14;;;;;;;7.03;6.50;;;;;;;;;;5033474;28;20542;-69
2023/09/10 05:47:40;;;;;;;6.43;5.93;;;;;;;;;;5033793;28;20566;-69
2023/09/10 05:50:06;;;;;;;9.40;5.57;;;;;;;;;;5033675;28;20416;-71
2023/09/10 05:52:32;;;;;;;7.17;6.43;;;;;;;;;;5032110;28;20430;-71
2023/09/10 05:54:58;;;;;;;7.10;6.50;;;;;;;;;;5032998;28;20842;-69
2023/09/10 05:57:25;;;;;;;6.07;5.70;;;;;;;;;;5032846;28;20423;-69
2023/09/10 05:59:51;;;;;;;6.37;5.83;;;;;;;;;;5033322;28;20862;-69
2023/09/10 06:02:17;;;;;;;6.20;5.60;;;;;;;;;;5033121;28;20416;-69
2023/09/10 06:04:43;;;;;;;6.73;6.13;;;;;;;;;;5033214;28;20451;-69
2023/09/10 06:07:09;;;;;;;11.33;6.10;;;;;;;;;;5033161;28;20422;-70
2023/09/10 06:09:35;;;;;;;5.57;5.27;;;;;;;;;;5033283;28;20415;-69
2023/09/10 06:12:04;;;;;;;5.73;5.30;;;;;;;;;;5033023;28;20412;-71
2023/09/10 06:14:33;;;;;;;6.17;5.77;;;;;;;;;;5032914;28;20510;-68
2023/09/10 06:16:59;;;;;;;5.97;5.53;;;;;;;;;;5032751;28;20762;-70
2023/09/10 06:19:25;;;;;;;6.63;5.60;;;;;;;;;;5033100;28;20427;-71
2023/09/10 06:21:51;;;;;;;6.23;5.63;;;;;;;;;;5033211;28;20422;-72
2023/09/10 06:24:17;;;;;;;6.83;6.23;;;;;;;;;;5033860;28;20419;-71
2023/09/10 06:26:43;;;;;;;7.70;7.00;;;;;;;;;;5033162;28;20428;-70
2023/09/10 06:29:11;;;;;;;6.40;6.00;;;;;;;;;;5032995;28;20443;-70
2023/09/10 06:31:37;;;;;;;9.20;6.50;;;;;;;;;;5032795;28;20427;-72
2023/09/10 06:34:04;;;;;;;10.77;7.90;;;;;;;;;;5032610;28;20473;-70
2023/09/10 06:36:30;;;;;;;20.73;9.10;;;;;;;;;;5032776;28;20231;-69
2023/09/10 06:38:56;;;;;;;10.23;8.70;;;;;;;;;;5032863;28;20419;-69
2023/09/10 06:41:22;;;;;;;8.80;8.10;;;;;;;;;;5032833;28;20808;-69
2023/09/10 06:43:48;;;;;;;10.13;9.30;;;;;;;;;;5032520;28;20427;-70
2023/09/10 06:46:14;;;;;;;10.97;10.03;;;;;;;;;;5033106;28;20883;-69
2023/09/10 06:48:40;;;;;;;9.03;8.20;;;;;;;;;;5032780;28;20606;-68
2023/09/10 06:51:06;;;;;;;8.50;7.77;;;;;;;;;;5032865;28;20434;-69
2023/09/10 06:53:33;;;;;;;8.90;8.00;;;;;;;;;;5032418;28;20942;-69
2023/09/10 06:55:59;;;;;;;11.60;7.53;;;;;;;;;;5032333;28;20477;-71
2023/09/10 06:58:25;;;;;;;7.90;7.37;;;;;;;;;;5032516;28;20411;-71
2023/09/10 07:00:51;;;;;;;17.73;8.00;;;;;;;;;;5032312;28;20185;-69
2023/09/10 07:03:17;;;;;;;9.70;8.80;;;;;;;;;;5032461;28;20545;-69
2023/09/10 07:05:43;;;;;;;10.73;9.77;;;;;;;;;;5032661;28;20184;-69
2023/09/10 07:08:13;;;;;;;12.07;8.50;;;;;;;;;;5032796;28;20408;-69
2023/09/10 07:10:39;;;;;;;8.90;8.03;;;;;;;;;;5032231;28;20994;-69
2023/09/10 07:13:06;;;;;;;8.40;7.73;;;;;;;;;;5032645;28;20569;-68
2023/09/10 07:15:32;;;;;;;12.10;8.30;;;;;;;;;;5032252;28;20419;-68
2023/09/10 07:17:58;;;;;;;16.57;7.73;;;;;;;;;;5032548;28;20423;-70
2023/09/10 07:20:24;;;;;;;7.93;7.33;;;;;;;;;;5032548;28;20416;-70
2023/09/10 07:22:50;;;;;;;13.00;8.33;;;;;;;;;;5032769;28;20426;-68
2023/09/10 07:25:16;;;;;;;9.17;8.30;;;;;;;;;;5032523;28;20775;-69
2023/09/10 07:27:42;;;;;;;12.40;8.47;;;;;;;;;;5032616;28;20443;-69
2023/09/10 07:30:08;;;;;;;17.43;9.20;;;;;;;;;;5035890;28;20411;-70
2023/09/10 07:32:34;;;;;;;12.40;8.10;;;;;;;;;;5036041;28;20914;-70
2023/09/10 07:35:00;;;;;;;8.60;7.80;;;;;;;;;;5036277;28;20423;-71
2023/09/10 07:37:26;;;;;;;8.83;8.03;;;;;;;;;;5036696;28;20855;-70
2023/09/10 07:39:52;;;;;;;22.23;8.23;;;;;;;;;;5036160;28;20429;-71
2023/09/10 07:42:18;;;;;;;7.73;7.13;;;;;;;;;;5035852;28;20494;-68
2023/09/10 07:44:44;;;;;;;10.53;7.77;;;;;;;;;;5035863;28;20422;-71
2023/09/10 07:47:10;;;;;;;16.37;7.73;;;;;;;;;;5035806;28;20419;-68
2023/09/10 07:49:35;;;;;;;13.80;9.57;;;;;;;;;;5051123;28;20510;-72
2023/09/10 07:52:04;;;;;;;21.70;16.90;;;;;;;;;;5034309;28;20427;-70
2023/09/10 07:54:30;;;;;;;9.70;8.53;;;;;;;;;;5035210;28;20490;-70
2023/09/10 07:56:56;;;;;;;9.07;8.43;;;;;;;;;;5035838;28;20419;-68
2023/09/10 07:59:22;;;;;;;8.67;7.87;;;;;;;;;;5035466;28;20427;-68
2023/09/10 08:01:48;;;;;;;14.80;10.00;;;;;;;;;;5035700;28;20410;-60
2023/09/10 08:04:14;;;;;;;10.70;8.90;;;;;;;;;;5035980;28;20419;-68
2023/09/10 08:06:40;;;;;;;8.10;7.40;;;;;;;;;;5035434;28;20419;-69
2023/09/10 08:09:06;;;;;;;17.53;9.50;;;;;;;;;;5035255;28;20477;-69
2023/09/10 08:11:32;;;;;;;12.20;8.63;;;;;;;;;;5035608;28;20477;-68
2023/09/10 08:13:58;;;;;;;8.03;7.60;;;;;;;;;;5035103;28;20467;-68
2023/09/10 08:16:24;;;;;;;9.03;7.33;;;;;;;;;;5034979;28;20423;-69
2023/09/10 08:18:50;;;;;;;8.87;8.17;;;;;;;;;;5035412;28;20419;-69
2023/09/10 08:21:16;;;;;;;7.60;6.93;;;;;;;;;;5035631;28;20412;-68
2023/09/10 08:23:43;;;;;;;11.07;8.10;;;;;;;;;;5035346;28;20325;-69
2023/09/10 08:26:09;;;;;;;9.20;6.87;;;;;;;;;;5035012;28;20429;-69
2023/09/10 08:28:35;;;;;;;7.63;7.00;;;;;;;;;;5035320;28;20439;-69
2023/09/10 08:31:01;;;;;;;8.17;7.47;;;;;;;;;;5035121;28;20419;-69
2023/09/10 08:33:27;;;;;;;9.80;7.03;;;;;;;;;;5035029;28;20921;-69
2023/09/10 08:35:54;;;;;;;6.67;6.27;;;;;;;;;;5035123;28;20507;-69
2023/09/10 08:38:21;;;;;;;7.07;6.37;;;;;;;;;;5035091;28;20423;-70
2023/09/10 08:40:50;;;;;;;5.93;5.73;;;;;;;;;;5034599;28;20854;-70
2023/09/10 08:43:18;;;;;;;14.00;7.20;;;;;;;;;;5034949;28;20415;-71
2023/09/10 08:45:44;;;;;;;11.30;6.73;;;;;;;;;;5034859;28;20431;-70
2023/09/10 08:48:11;;;;;;;6.63;6.10;;;;;;;;;;5034712;28;20477;-70
2023/09/10 08:50:37;;;;;;;8.50;7.60;;;;;;;;;;5034754;28;20415;-69
2023/09/10 08:53:04;;;;;;;7.33;6.50;;;;;;;;;;5034496;28;20471;-71
2023/09/10 08:55:30;;;;;;;7.77;7.07;;;;;;;;;;5034755;28;20534;-69
2023/09/10 08:57:57;;;;;;;9.50;6.50;;;;;;;;;;5034999;28;20498;-68
2023/09/10 09:00:23;;;;;;;14.23;8.20;;;;;;;;;;5034732;28;20423;-70
2023/09/10 09:02:49;;;;;;;16.60;7.30;;;;;;;;;;5034341;28;20451;-69
2023/09/10 09:05:15;;;;;;;14.43;7.60;;;;;;;;;;5034178;28;20407;-69
2023/09/10 09:07:49;;;;;;;11.30;6.60;;;;;;;;;;5034497;28;20506;-69
2023/09/10 09:10:25;;;;;;;11.63;7.67;;;;;;;;;;5034590;28;20781;-70
2023/09/10 09:12:53;;;;;;;7.53;6.77;;;;;;;;;;5034503;28;20815;-70
2023/09/10 09:15:19;;;;;;;8.73;6.50;;;;;;;;;;5034384;28;20517;-70
2023/09/10 09:17:46;;;;;;;11.30;6.07;;;;;;;;;;5034048;28;20419;-69
2023/09/10 09:20:12;;;;;;;7.97;7.30;;;;;;;;;;5034058;28;20949;-70
2023/09/10 09:22:42;;;;;;;10.70;6.73;;;;;;;;;;5034352;28;20469;-70
2023/09/10 09:25:09;;;;;;;10.80;6.30;;;;;;;;;;5034175;28;20419;-69
2023/09/10 09:27:35;;;;;;;9.53;7.00;;;;;;;;;;5034166;28;20415;-70
2023/09/10 09:30:06;;;;;;;8.37;7.77;;;;;;;;;;5034000;28;20841;-71
2023/09/10 09:32:34;;;;;;;8.13;7.43;;;;;;;;;;5034359;28;20398;-69
2023/09/10 09:35:00;;;;;;;7.57;6.93;;;;;;;;;;5033975;28;20436;-69
2023/09/10 09:37:26;;;;;;;7.73;7.03;;;;;;;;;;5033769;28;20485;-69
2023/09/10 09:39:52;;;;;;;10.20;6.47;;;;;;;;;;5033763;28;20518;-72
2023/09/10 09:42:22;;;;;;;11.10;6.70;;;;;;;;;;5033974;28;20185;-68
2023/09/10 09:44:48;;;;;;;8.40;7.60;;;;;;;;;;5034229;28;20461;-68
2023/09/10 09:47:14;;;;;;;6.67;6.20;;;;;;;;;;5033542;28;20458;-68
2023/09/10 09:49:47;;;;;;;5.50;5.20;;;;;;;;;;5033560;28;20177;-69
2023/09/10 09:52:13;;;;;;;6.10;5.60;;;;;;;;;;5032799;28;20473;-69
2023/09/10 09:54:40;;;;;;;8.93;6.80;;;;;;;;;;5033150;28;20487;-69
2023/09/10 09:57:06;;;;;;;7.30;6.70;;;;;;;;;;5033371;28;20412;-68
2023/09/10 09:59:36;;;;;;;6.23;5.83;;;;;;;;;;5033510;28;20473;-68
2023/09/10 10:02:02;;;;;;;8.17;6.43;;;;;;;;;;5033479;28;20435;-68
2023/09/10 10:04:28;;;;;;;5.10;4.90;;;;;;;;;;5033534;28;20481;-68
2023/09/10 10:06:54;;;;;;;6.13;5.70;;;;;;;;;;5033428;28;20489;-69
2023/09/10 10:09:20;;;;;;;10.63;6.50;;;;;;;;;;5033626;28;20439;-68
2023/09/10 10:11:46;;;;;;;5.53;5.13;;;;;;;;;;5033572;28;20900;-69
2023/09/10 10:14:13;;;;;;;10.37;5.70;;;;;;;;;;5033213;28;20532;-69
2023/09/10 10:16:39;;;;;;;6.67;5.97;;;;;;;;;;5033275;28;20425;-68
2023/09/10 10:19:06;;;;;;;5.67;5.33;;;;;;;;;;5032833;28;20514;-68
2023/09/10 10:21:32;;;;;;;11.03;6.00;;;;;;;;;;5032871;28;20848;-68
2023/09/10 10:23:58;;;;;;;5.80;5.30;;;;;;;;;;5033209;28;20434;-68
2023/09/10 10:26:25;;;;;;;6.27;5.57;;;;;;;;;;5032881;28;20423;-69
2023/09/10 10:28:51;;;;;;;6.53;6.03;;;;;;;;;;5033067;28;20423;-70
2023/09/10 10:31:18;;;;;;;8.23;5.97;;;;;;;;;;5032622;28;20426;-69
2023/09/10 10:33:54;;;;;;;6.00;5.40;;;;;;;;;;5032712;28;20463;-68
2023/09/10 10:36:31;;;;;;;9.37;4.87;;;;;;;;;;5032993;28;20399;-69
2023/09/10 10:38:57;;;;;;;13.43;6.23;;;;;;;;;;5033079;28;20494;-69
2023/09/10 10:41:26;;;;;;;8.10;6.07;;;;;;;;;;5032859;28;20447;-69
2023/09/10 10:43:55;;;;;;;7.27;6.30;;;;;;;;;;5032629;28;20415;-69
2023/09/10 10:46:25;;;;;;;11.10;6.20;;;;;;;;;;5033155;28;20411;-70
2023/09/10 10:48:51;;;;;;;7.37;5.87;;;;;;;;;;5032265;28;20419;-69
2023/09/10 10:54:21;;;;;;;6.67;6.10;;;;;;;;;;5032160;28;21006;-69
2023/09/10 10:56:47;;;;;;;6.67;6.23;;;;;;;;;;5032553;28;20399;-69
2023/09/10 10:59:13;;;;;;;6.00;5.40;;;;;;;;;;5032524;28;20813;-69
2023/09/10 11:01:39;;;;;;;6.87;5.73;;;;;;;;;;5032801;28;20468;-70
2023/09/10 11:04:22;;;;;;;5.70;5.40;;;;;;;;;;5034999;28;20488;-70
2023/09/10 11:07:07;;;;;;;6.07;5.20;;;;;;;;;;5036485;28;20403;-71
2023/09/10 11:09:36;;;;;;;6.30;5.80;;;;;;;;;;5036698;28;20510;-69
2023/09/10 11:12:06;;;;;;;9.47;5.83;;;;;;;;;;5036518;28;20824;-70
2023/09/10 11:14:53;;;;;;;7.93;6.17;;;;;;;;;;5036568;28;20561;-70
2023/09/10 11:17:22;;;;;;;5.67;5.17;;;;;;;;;;5035677;28;20417;-71
2023/09/10 11:19:48;;;;;;;6.83;6.13;;;;;;;;;;5036184;28;20450;-72
2023/09/10 11:22:14;;;;;;;10.57;5.50;;;;;;;;;;5036367;28;20411;-71
2023/09/10 11:24:41;;;;;;;7.43;5.37;;;;;;;;;;5036502;28;20414;-70
2023/09/10 11:27:39;;;;;;;12.37;5.37;;;;;;;;;;5036504;28;20418;-70
2023/09/10 11:30:15;;;;;;;6.80;5.23;;;;;;;;;;5034997;28;20520;-71
2023/09/10 11:32:42;;;;;;;6.83;6.33;;;;;;;;;;5036227;28;20411;-70
2023/09/10 11:35:17;;;;;;;6.27;5.83;;;;;;;;;;5036067;28;20423;-70
2023/09/10 11:37:45;;;;;;;5.23;5.03;;;;;;;;;;5035842;28;20449;-71
2023/09/10 11:40:12;;;;;;;13.10;5.47;;;;;;;;;;5035766;28;20756;-69
2023/09/10 11:42:38;;;;;;;5.30;4.80;;;;;;;;;;5036686;28;20415;-69
2023/09/10 11:45:05;;;;;;;15.33;5.60;;;;;;;;;;5036026;28;20451;-70
2023/09/10 11:47:31;;;;;;;10.13;5.97;;;;;;;;;;5036095;28;20481;-70
2023/09/10 11:50:01;;;;;;;10.00;6.27;;;;;;;;;;5035567;28;20434;-70
2023/09/10 11:52:27;;;;;;;16.83;5.83;;;;;;;;;;5034378;28;20419;-70
2023/09/10 11:54:53;;;;;;;6.27;5.80;;;;;;;;;;5035576;28;20487;-70
2023/09/10 11:57:20;;;;;;;6.73;5.30;;;;;;;;;;5035518;28;20918;-71
2023/09/10 11:59:50;;;;;;;7.87;5.70;;;;;;;;;;5036534;28;20434;-71
2023/09/10 12:02:16;;;;;;;7.07;5.73;;;;;;;;;;5035546;28;20416;-70
2023/09/10 12:04:42;;;;;;;6.53;5.93;;;;;;;;;;5035937;28;20428;-70
2023/09/10 12:07:08;;;;;;;17.33;6.60;;;;;;;;;;5035384;28;20447;-71
2023/09/10 12:09:34;;;;;;;5.90;5.33;;;;;;;;;;5035668;28;20184;-71
2023/09/10 12:12:13;;;;;;;3.83;3.73;;;;;;;;;;5035259;28;20421;-72
2023/09/10 12:14:39;;;;;;;7.60;5.70;;;;;;;;;;5035023;28;20470;-69
2023/09/10 12:17:05;;;;;;;5.07;4.93;;;;;;;;;;5035197;28;20961;-69
2023/09/10 12:19:32;;;;;;;6.17;5.67;;;;;;;;;;5033804;28;20455;-69
2023/09/10 12:21:58;;;;;;;6.77;6.03;;;;;;;;;;5035868;28;20510;-70
2023/09/10 12:24:24;;;;;;;5.70;5.20;;;;;;;;;;5035369;28;20516;-71
2023/09/10 12:26:50;;;;;;;6.00;5.60;;;;;;;;;;5035228;28;20418;-71
2023/09/10 12:29:16;;;;;;;8.33;5.17;;;;;;;;;;5035006;28;20853;-69
2023/09/10 12:31:42;;;;;;;5.53;5.33;;;;;;;;;;5035236;28;20419;-70
2023/09/10 12:34:09;;;;;;;6.70;6.20;;;;;;;;;;5035081;28;20491;-71
2023/09/10 12:36:36;;;;;;;6.37;5.87;;;;;;;;;;5035622;28;20419;-69
2023/09/10 12:39:04;;;;;;;7.83;7.20;;;;;;;;;;5034876;28;20460;-71
2023/09/10 12:41:30;;;;;;;12.50;6.37;;;;;;;;;;5034737;28;20770;-70
2023/09/10 12:43:56;;;;;;;6.60;6.00;;;;;;;;;;5034702;28;20426;-70
2023/09/10 12:46:22;;;;;;;6.03;5.63;;;;;;;;;;5034962;28;20454;-69
2023/09/10 12:48:49;;;;;;;9.93;6.27;;;;;;;;;;5034569;28;20423;-70
2023/09/10 12:51:15;;;;;;;7.00;6.33;;;;;;;;;;5034187;28;20530;-71
2023/09/10 12:53:41;;;;;;;6.20;5.70;;;;;;;;;;5034791;28;20633;-71
2023/09/10 12:56:07;;;;;;;9.93;6.07;;;;;;;;;;5034494;28;20475;-71
2023/09/10 12:58:33;;;;;;;6.70;6.10;;;;;;;;;;5034890;28;20427;-69
2023/09/10 13:00:59;;;;;;;11.33;6.40;;;;;;;;;;5034569;28;20466;-69
2023/09/10 13:03:28;;;;;;;12.33;4.60;;;;;;;;;;5034327;28;20419;-70
2023/09/10 13:05:54;;;;;;;12.87;5.80;;;;;;;;;;5034132;28;20416;-69
2023/09/10 13:08:20;;;;;;;10.70;6.30;;;;;;;;;;5034303;28;20469;-69
2023/09/10 13:10:46;;;;;;;7.27;6.13;;;;;;;;;;5034440;28;20518;-71
2023/09/10 13:13:12;;;;;;;6.70;6.30;;;;;;;;;;5050432;28;20566;-70
2023/09/10 13:15:38;;;;;;;6.20;5.60;;;;;;;;;;5034005;28;20526;-70
2023/09/10 13:18:04;;;;;;;9.27;5.50;;;;;;;;;;5034310;28;20411;-69
2023/09/10 13:20:30;;;;;;;8.83;6.57;;;;;;;;;;5034604;28;20468;-70
2023/09/10 13:22:56;;;;;;;10.60;5.40;;;;;;;;;;5034221;28;20415;-70
2023/09/10 13:25:22;;;;;;;4.43;4.20;;;;;;;;;;5033475;28;20903;-71
2023/09/10 13:27:48;;;;;;;4.63;3.80;;;;;;;;;;5033772;28;20888;-69
2023/09/10 13:30:15;;;;;;;4.40;3.83;;;;;;;;;;5033854;28;20526;-68
2023/09/10 13:32:41;;;;;;;6.43;4.33;;;;;;;;;;5033870;28;20462;-71
2023/09/10 13:35:07;;;;;;;8.93;4.50;;;;;;;;;;5033476;28;20427;-69
2023/09/10 13:37:33;;;;;;;27.97;4.87;;;;;;;;;;5033535;28;20443;-72
2023/09/10 13:39:59;;;;;;;7.80;5.17;;;;;;;;;;5033546;28;20423;-71
2023/09/10 13:42:25;;;;;;;5.60;5.10;;;;;;;;;;5033830;28;20419;-71
2023/09/10 13:44:51;;;;;;;5.80;5.50;;;;;;;;;;5033530;28;20502;-71
2023/09/10 13:47:17;;;;;;;9.17;6.30;;;;;;;;;;5033702;28;20915;-72
2023/09/10 13:49:43;;;;;;;6.17;5.67;;;;;;;;;;5033534;28;20772;-71
2023/09/10 13:52:11;;;;;;;4.63;4.43;;;;;;;;;;5033499;28;20423;-72
2023/09/10 13:54:37;;;;;;;8.63;5.20;;;;;;;;;;5033343;28;20577;-70
2023/09/10 13:57:03;;;;;;;8.53;4.70;;;;;;;;;;5033560;28;20446;-69
2023/09/10 13:59:29;;;;;;;15.70;5.97;;;;;;;;;;5033487;28;20423;-69
2023/09/10 14:01:55;;;;;;;7.00;6.40;;;;;;;;;;5033553;28;20962;-69
2023/09/10 14:04:24;;;;;;;8.80;6.30;;;;;;;;;;5033440;28;20515;-70
2023/09/10 14:06:50;;;;;;;8.27;6.10;;;;;;;;;;5033217;28;20406;-69
2023/09/10 14:09:16;;;;;;;13.33;5.27;;;;;;;;;;5032970;28;20425;-68
2023/09/10 14:11:42;;;;;;;9.57;5.10;;;;;;;;;;5033384;28;20416;-69
2023/09/10 14:14:08;;;;;;;15.17;6.00;;;;;;;;;;5032912;28;20973;-71
2023/09/10 14:16:34;;;;;;;8.20;4.97;;;;;;;;;;5033047;28;20422;-70
2023/09/10 14:18:59;;;;;;;13.63;5.23;;;;;;;;;;5032933;28;20180;-68
2023/09/10 14:21:26;;;;;;;10.63;5.70;;;;;;;;;;5032910;28;20510;-71
2023/09/10 14:23:52;;;;;;;5.37;5.07;;;;;;;;;;5033040;28;20510;-70
2023/09/10 14:26:18;;;;;;;5.63;5.33;;;;;;;;;;5032967;28;20419;-70
2023/09/10 14:28:44;;;;;;;4.43;4.33;;;;;;;;;;5033056;28;20872;-70
2023/09/10 14:31:10;;;;;;;12.07;6.03;;;;;;;;;;5032824;28;20442;-69
2023/09/10 14:33:36;;;;;;;7.70;4.70;;;;;;;;;;5032674;28;20567;-71
2023/09/10 14:36:02;;;;;;;12.23;5.93;;;;;;;;;;5033014;28;20407;-70
2023/09/10 14:38:28;;;;;;;5.43;5.13;;;;;;;;;;5032819;28;20453;-69
2023/09/10 14:40:54;;;;;;;6.03;5.37;;;;;;;;;;5032748;28;20522;-70
2023/09/10 14:43:20;;;;;;;5.37;5.17;;;;;;;;;;5032661;28;20755;-69
2023/09/10 14:45:46;;;;;;;6.87;6.27;;;;;;;;;;5032615;28;20411;-70